Time;durP1;ratioP1;P1;durP2;ratioP2;P2;SDS_P1;SDS_P2;PMS_P1;PMS_P2;Temp;Humidity;BMP_temperature;BMP_pressure;BME280_temperature;BME280_humidity;BME280_pressure;Samples;Min_cycle;Max_cycle;Signal;HPM_P1;HPM_P2
2021/05/04 00:02:03;;;;;;;4.95;3.20;;;;;;;4.05;72.51;98729.09;5092839;28;20131;-82
2021/05/04 00:04:29;;;;;;;6.57;3.60;;;;;;;3.94;72.04;98706.94;5088668;28;20058;-83
2021/05/04 00:06:56;;;;;;;3.10;2.70;;;;;;;4.08;71.55;98704.56;5081035;28;20478;-83
2021/05/04 00:09:23;;;;;;;6.30;2.78;;;;;;;4.22;71.00;98726.53;5089371;28;20055;-83
2021/05/04 00:11:51;;;;;;;3.35;2.80;;;;;;;4.23;71.51;98715.63;5088812;28;20043;-83
2021/05/04 00:14:17;;;;;;;3.63;2.95;;;;;;;4.24;70.62;98694.94;5077094;28;20040;-83
2021/05/04 00:16:44;;;;;;;3.85;3.08;;;;;;;4.34;69.36;98706.47;5089872;28;20051;-83
2021/05/04 00:19:10;;;;;;;4.70;2.83;;;;;;;4.38;69.67;98707.84;5084759;28;20048;-81
2021/05/04 00:21:37;;;;;;;4.13;3.00;;;;;;;4.34;69.93;98702.94;5083702;28;20101;-83
2021/05/04 00:24:04;;;;;;;3.25;2.80;;;;;;;4.44;70.39;98700.97;5085041;28;20079;-82
2021/05/04 00:26:30;;;;;;;8.38;3.28;;;;;;;4.41;70.25;98693.22;5082542;28;20507;-82
2021/05/04 00:28:58;;;;;;;8.90;2.92;;;;;;;4.41;70.13;98690.50;5078414;28;20040;-83
2021/05/04 00:31:24;;;;;;;4.32;3.40;;;;;;;4.47;70.44;98691.75;5079454;28;20098;-83
2021/05/04 00:33:50;;;;;;;4.90;2.97;;;;;;;4.49;70.11;98690.59;5078058;28;20048;-82
2021/05/04 00:36:17;;;;;;;8.35;3.13;;;;;;;4.52;69.60;98686.75;5077656;28;20041;-82
2021/05/04 00:38:43;;;;;;;3.92;3.22;;;;;;;4.55;69.53;98679.19;5092247;28;20052;-82
2021/05/04 00:41:09;;;;;;;4.25;3.25;;;;;;;4.51;69.54;98682.34;5079669;28;20135;-82
2021/05/04 00:43:36;;;;;;;5.25;3.40;;;;;;;4.51;69.81;98669.72;5083802;28;20047;-82
2021/05/04 00:46:03;;;;;;;4.95;3.40;;;;;;;4.60;68.92;98667.94;5090658;28;20109;-82
2021/05/04 00:48:31;;;;;;;6.97;2.80;;;;;;;4.61;69.41;98650.78;5093098;28;20055;-82
2021/05/04 00:50:58;;;;;;;4.57;2.85;;;;;;;4.62;69.51;98644.38;5090163;28;20554;-82
2021/05/04 00:53:24;;;;;;;3.28;2.97;;;;;;;4.58;69.49;98630.41;5088840;28;20056;-82
2021/05/04 00:55:51;;;;;;;3.55;3.10;;;;;;;4.67;70.18;98638.53;5092144;28;20052;-82
2021/05/04 00:58:18;;;;;;;2.90;2.65;;;;;;;4.63;69.86;98634.47;5086851;28;20052;-82
2021/05/04 01:00:44;;;;;;;5.35;3.35;;;;;;;4.64;70.02;98631.63;5091283;28;20426;-82
2021/05/04 01:03:12;;;;;;;3.28;2.92;;;;;;;4.67;70.15;98639.38;5082449;28;20434;-82
2021/05/04 01:05:39;;;;;;;4.40;3.17;;;;;;;4.60;70.22;98619.47;5091008;28;20040;-82
2021/05/04 01:08:06;;;;;;;4.13;3.17;;;;;;;4.69;69.99;98636.53;5086740;28;20053;-82
2021/05/04 01:10:32;;;;;;;4.45;2.90;;;;;;;4.81;69.16;98637.94;5072234;28;20118;-82
2021/05/04 01:12:59;;;;;;;7.80;3.13;;;;;;;4.96;68.47;98630.91;5070406;28;20055;-82
2021/05/04 01:15:25;;;;;;;6.97;3.40;;;;;;;4.90;68.42;98611.88;5087472;28;20052;-82
2021/05/04 01:17:52;;;;;;;4.35;3.08;;;;;;;4.93;68.39;98614.25;5091941;28;20044;-83
2021/05/04 01:20:20;;;;;;;6.18;3.05;;;;;;;5.10;67.78;98626.78;5080700;28;20060;-82
2021/05/04 01:22:47;;;;;;;5.90;3.72;;;;;;;4.99;67.30;98596.59;5082258;28;20069;-82
2021/05/04 01:25:15;;;;;;;3.67;3.00;;;;;;;5.24;67.39;98619.06;5086371;28;20310;-82
2021/05/04 01:27:42;;;;;;;4.40;3.17;;;;;;;5.13;67.76;98607.59;5089711;28;20047;-82
2021/05/04 01:30:09;;;;;;;4.15;3.00;;;;;;;5.16;67.89;98592.09;5089244;28;20056;-83
2021/05/04 01:32:35;;;;;;;5.93;3.08;;;;;;;5.22;67.34;98588.75;5073175;28;20056;-82
2021/05/04 01:35:05;;;;;;;5.53;3.30;;;;;;;5.16;67.56;98592.94;5070711;28;20428;-83
2021/05/04 01:37:31;;;;;;;5.35;3.10;;;;;;;5.23;67.01;98576.97;5084106;28;20040;-83
2021/05/04 01:39:59;;;;;;;6.97;3.65;;;;;;;5.23;67.10;98575.09;5092044;28;20113;-83
2021/05/04 01:42:25;;;;;;;4.85;3.42;;;;;;;5.27;67.56;98583.72;5078702;28;20053;-83
2021/05/04 01:44:51;;;;;;;4.30;3.30;;;;;;;5.08;68.13;98568.66;5088820;28;20515;-82
2021/05/04 01:47:18;;;;;;;4.35;3.15;;;;;;;5.28;67.67;98580.00;5085500;28;20036;-83
2021/05/04 01:49:44;;;;;;;6.82;3.15;;;;;;;5.25;67.78;98569.53;5092343;28;20044;-82
2021/05/04 01:52:12;;;;;;;4.90;3.67;;;;;;;5.20;68.04;98551.19;5090083;28;20052;-82
2021/05/04 01:54:39;;;;;;;4.65;2.90;;;;;;;5.14;67.67;98544.59;5084581;28;20055;-82
2021/05/04 01:57:07;;;;;;;5.13;3.50;;;;;;;5.35;67.41;98566.72;5091050;28;20101;-82
2021/05/04 01:59:34;;;;;;;5.55;3.53;;;;;;;5.38;67.22;98553.72;5069319;28;20083;-82
2021/05/04 02:02:00;;;;;;;4.03;2.88;;;;;;;5.54;66.73;98555.63;5071767;28;20478;-82
2021/05/04 02:04:31;;;;;;;7.70;3.55;;;;;;;5.54;66.47;98541.28;5076160;28;20044;-82
2021/05/04 02:06:58;;;;;;;9.82;3.10;;;;;;;5.72;65.67;98552.75;5090879;28;20048;-82
2021/05/04 02:09:25;;;;;;;4.82;3.05;;;;;;;5.75;65.54;98544.31;5083327;28;20071;-82
2021/05/04 02:11:51;;;;;;;9.98;3.17;;;;;;;5.58;65.69;98527.28;5088554;28;20052;-82
2021/05/04 02:14:21;;;;;;;5.53;3.72;;;;;;;5.74;66.16;98553.41;5090123;28;20071;-82
2021/05/04 02:16:50;;;;;;;4.97;3.42;;;;;;;5.70;65.52;98540.44;5084342;28;20044;-82
2021/05/04 02:19:17;;;;;;;5.32;3.30;;;;;;;5.77;65.12;98539.59;5089587;28;20055;-83
2021/05/04 02:21:43;;;;;;;7.28;3.22;;;;;;;5.62;66.13;98517.84;5085918;28;20044;-82
2021/05/04 02:24:10;;;;;;;4.65;3.17;;;;;;;5.65;65.93;98532.84;5086227;28;20048;-82
2021/05/04 02:26:36;;;;;;;4.78;2.92;;;;;;;5.60;65.62;98511.78;5076984;28;20048;-82
2021/05/04 02:29:02;;;;;;;3.35;2.88;;;;;;;5.63;65.37;98519.53;5091653;28;20475;-82
2021/05/04 02:31:30;;;;;;;4.25;2.95;;;;;;;5.63;65.42;98533.03;5079637;28;20036;-82
2021/05/04 02:33:56;;;;;;;4.70;2.88;;;;;;;5.68;65.18;98533.34;5071746;28;20105;-82
2021/05/04 02:36:22;;;;;;;4.05;3.00;;;;;;;5.67;64.38;98504.72;5081370;28;20055;-82
2021/05/04 02:38:48;;;;;;;3.90;2.90;;;;;;;5.74;64.81;98514.81;5085912;28;20055;-82
2021/05/04 02:41:15;;;;;;;4.10;3.13;;;;;;;5.81;64.96;98511.28;5088445;28;20059;-82
2021/05/04 02:43:41;;;;;;;6.45;2.83;;;;;;;5.81;64.97;98515.81;5086009;28;20047;-83
2021/05/04 02:46:07;;;;;;;5.20;3.55;;;;;;;5.83;64.89;98505.72;5089112;28;20036;-82
2021/05/04 02:48:39;;;;;;;5.22;2.67;;;;;;;5.76;65.19;98499.31;5090966;28;20106;-83
2021/05/04 02:51:07;;;;;;;4.22;2.65;;;;;;;5.78;65.04;98490.03;5089333;28;20109;-82
2021/05/04 02:53:33;;;;;;;5.60;3.22;;;;;;;5.89;65.23;98485.31;5077198;28;20047;-83
2021/05/04 02:55:59;;;;;;;3.50;2.88;;;;;;;5.85;65.14;98474.81;5081723;28;20055;-82
2021/05/04 02:58:26;;;;;;;3.67;2.72;;;;;;;5.90;64.18;98477.03;5089368;28;20040;-82
2021/05/04 03:00:54;;;;;;;5.28;2.88;;;;;;;5.92;64.91;98475.00;5072886;28;20044;-82
2021/05/04 03:03:20;;;;;;;8.60;3.30;;;;;;;6.01;64.41;98471.28;5070526;28;20045;-82
2021/05/04 03:05:47;;;;;;;5.03;3.20;;;;;;;6.02;64.53;98466.72;5083703;28;20064;-82
2021/05/04 03:08:14;;;;;;;5.20;2.75;;;;;;;5.99;64.09;98446.34;5071677;28;20499;-82
2021/05/04 03:10:40;;;;;;;4.82;3.03;;;;;;;5.94;64.30;98437.06;5083274;28;20044;-82
2021/05/04 03:13:06;;;;;;;3.75;2.92;;;;;;;6.14;63.57;98451.88;5083071;28;20040;-82
2021/05/04 03:15:33;;;;;;;4.38;3.08;;;;;;;6.26;63.76;98451.47;5088674;28;20510;-82
2021/05/04 03:18:00;;;;;;;3.35;2.40;;;;;;;6.36;63.34;98447.56;5088715;28;20048;-82
2021/05/04 03:20:27;;;;;;;4.00;2.60;;;;;;;6.35;62.66;98421.59;5088301;28;20055;-82
2021/05/04 03:22:54;;;;;;;3.75;2.72;;;;;;;6.51;62.63;98427.91;5088449;28;20048;-82
2021/05/04 03:25:20;;;;;;;2.75;2.20;;;;;;;6.53;62.29;98424.03;5087387;28;20055;-82
2021/05/04 03:27:47;;;;;;;3.83;2.38;;;;;;;6.69;61.66;98425.78;5070143;28;20040;-82
2021/05/04 03:30:14;;;;;;;7.20;2.47;;;;;;;6.82;60.59;98419.81;5078540;28;20060;-82
2021/05/04 03:32:42;;;;;;;3.03;2.17;;;;;;;6.72;61.33;98395.72;5084187;28;20048;-83
2021/05/04 03:35:09;;;;;;;3.53;2.53;;;;;;;6.85;61.45;98422.16;5084479;28;20056;-83
2021/05/04 03:37:36;;;;;;;4.28;2.20;;;;;;;6.93;60.80;98412.31;5086180;28;20060;-82
2021/05/04 03:40:04;;;;;;;2.92;2.55;;;;;;;6.91;60.54;98407.91;5091293;28;20097;-82
2021/05/04 03:42:31;;;;;;;4.22;2.50;;;;;;;6.94;60.94;98392.34;5078484;28;20044;-82
2021/05/04 03:44:58;;;;;;;5.70;2.25;;;;;;;7.00;60.12;98394.31;5088744;28;20048;-80
2021/05/04 03:47:24;;;;;;;4.53;2.17;;;;;;;7.00;61.17;98397.03;5083566;28;20136;-81
2021/05/04 03:49:50;;;;;;;3.90;2.58;;;;;;;7.02;60.11;98386.91;5087311;28;20048;-82
2021/05/04 03:52:17;;;;;;;3.75;2.28;;;;;;;7.12;60.29;98394.75;5077782;28;20056;-82
2021/05/04 03:54:44;;;;;;;3.67;2.63;;;;;;;7.10;59.51;98376.00;5091899;28;20055;-82
2021/05/04 03:57:11;;;;;;;3.05;2.47;;;;;;;7.17;60.44;98385.06;5093375;28;20044;-82
2021/05/04 03:59:38;;;;;;;3.72;2.47;;;;;;;7.17;59.31;98371.56;5086689;28;20044;-82
2021/05/04 04:02:04;;;;;;;4.00;2.28;;;;;;;7.23;59.39;98365.41;5073891;28;20040;-82
2021/05/04 04:04:30;;;;;;;4.25;2.30;;;;;;;7.30;59.22;98370.09;5073329;28;20060;-81
2021/05/04 04:06:56;;;;;;;2.08;1.88;;;;;;;7.28;59.09;98378.38;5088560;28;20102;-81
2021/05/04 04:09:23;;;;;;;3.70;2.38;;;;;;;7.26;59.01;98366.91;5093987;28;20048;-81
2021/05/04 04:11:49;;;;;;;5.60;2.35;;;;;;;7.29;59.15;98363.84;5086142;28;20055;-82
2021/05/04 04:14:16;;;;;;;2.90;2.17;;;;;;;7.36;58.32;98350.41;5093031;28;20048;-81
2021/05/04 04:16:42;;;;;;;5.03;2.20;;;;;;;7.40;58.70;98357.97;5082707;28;20052;-82
2021/05/04 04:19:09;;;;;;;5.68;2.13;;;;;;;7.31;58.81;98342.03;5076052;28;20098;-87
2021/05/04 04:21:35;;;;;;;3.30;1.98;;;;;;;7.43;58.23;98346.78;5077051;28;20056;-87
2021/05/04 04:24:02;;;;;;;6.45;2.03;;;;;;;7.34;59.03;98330.84;5075359;28;20127;-87
2021/05/04 04:26:28;;;;;;;2.05;1.83;;;;;;;7.48;58.36;98338.13;5079212;28;20041;-86
2021/05/04 04:28:55;;;;;;;4.20;1.95;;;;;;;7.47;57.69;98319.38;5083563;28;20612;-86
2021/05/04 04:31:22;;;;;;;4.18;2.38;;;;;;;7.53;57.89;98329.47;5092129;28;20051;-87
2021/05/04 04:33:49;;;;;;;2.72;2.10;;;;;;;7.55;58.57;98335.53;5075614;28;20055;-87
2021/05/04 04:36:20;;;;;;;3.05;2.00;;;;;;;7.55;57.72;98330.13;5085566;28;20040;-85
2021/05/04 04:38:47;;;;;;;2.30;1.77;;;;;;;7.56;57.60;98319.13;5089530;28;20051;-87
2021/05/04 04:41:15;;;;;;;2.47;1.92;;;;;;;7.64;58.53;98344.41;5093197;28;20128;-86
2021/05/04 04:43:47;;;;;;;5.78;2.00;;;;;;;7.57;58.21;98334.34;5089724;28;20476;-86
2021/05/04 04:46:18;;;;;;;2.25;1.80;;;;;;;7.67;57.55;98330.50;5089659;28;20086;-85
2021/05/04 04:51:28;;;;;;;2.72;1.98;;;;;;;7.63;57.91;98321.91;5084411;28;20052;-84
2021/05/04 04:53:57;;;;;;;2.72;2.00;;;;;;;7.73;57.67;98317.06;5092248;28;20067;-85
2021/05/04 04:56:23;;;;;;;2.40;2.10;;;;;;;7.76;57.33;98324.78;5092378;28;20040;-87
2021/05/04 04:58:59;;;;;;;9.00;1.95;;;;;;;7.73;57.27;98308.94;5088198;28;20050;-85
2021/05/04 05:01:41;;;;;;;4.07;2.13;;;;;;;7.84;57.40;98314.91;5074879;28;20052;-86
2021/05/04 05:04:09;;;;;;;3.55;1.83;;;;;;;7.80;57.40;98315.28;5073595;28;20071;-85
2021/05/04 05:06:40;;;;;;;2.33;1.73;;;;;;;7.77;57.06;98306.72;5074148;28;20067;-85
2021/05/04 05:09:08;;;;;;;3.28;1.98;;;;;;;7.88;57.58;98313.50;5081981;28;20048;-86
2021/05/04 05:11:40;;;;;;;2.45;1.88;;;;;;;7.70;57.53;98293.09;5076995;28;20050;-86
2021/05/04 05:14:08;;;;;;;3.08;1.67;;;;;;;7.84;57.68;98301.38;5092643;28;20048;-86
2021/05/04 05:16:35;;;;;;;2.72;1.92;;;;;;;7.85;57.58;98295.78;5088650;28;20467;-86
2021/05/04 05:19:05;;;;;;;3.22;2.20;;;;;;;7.93;57.56;98292.97;5082360;28;20059;-86
2021/05/04 05:21:40;;;;;;;3.88;1.80;;;;;;;7.84;58.13;98277.03;5073067;28;20059;-86
2021/05/04 05:24:08;;;;;;;2.70;2.17;;;;;;;7.93;57.91;98286.72;5089690;28;20138;-86
2021/05/04 05:26:42;;;;;;;3.28;2.05;;;;;;;8.05;57.82;98298.72;5094259;28;20044;-86
2021/05/04 05:29:14;;;;;;;4.68;2.60;;;;;;;7.98;57.47;98270.75;5079076;28;20056;-84
2021/05/04 05:31:46;;;;;;;3.25;2.00;;;;;;;8.17;56.97;98293.66;5093213;28;20441;-86
2021/05/04 05:34:15;;;;;;;1.75;1.52;;;;;;;8.10;57.91;98274.63;5077630;28;20053;-85
2021/05/04 05:39:44;;;;;;;2.95;2.35;;;;;;;8.25;57.11;98282.72;5077332;28;20184;-85
2021/05/04 05:42:15;;;;;;;3.67;2.10;;;;;;;8.36;56.97;98277.84;5084452;28;20051;-85
2021/05/04 05:44:43;;;;;;;3.25;2.00;;;;;;;8.43;57.25;98289.56;5083735;28;20080;-84
2021/05/04 05:47:14;;;;;;;2.70;1.92;;;;;;;8.42;57.42;98286.00;5087135;28;20533;-85
2021/05/04 05:49:45;;;;;;;4.15;2.15;;;;;;;8.47;57.33;98275.47;5073951;28;20091;-85
2021/05/04 05:52:22;;;;;;;3.08;2.30;;;;;;;8.50;57.39;98266.13;5089386;28;20088;-84
2021/05/04 05:54:49;;;;;;;3.65;2.40;;;;;;;8.40;56.86;98260.16;5091066;28;20097;-84
2021/05/04 05:57:15;;;;;;;4.10;2.30;;;;;;;8.54;57.03;98258.47;5075629;28;20056;-83
2021/05/04 05:59:44;;;;;;;3.38;1.92;;;;;;;8.74;57.47;98270.28;5091359;28;20493;-84
2021/05/04 06:02:31;;;;;;;4.65;2.00;;;;;;;8.68;56.57;98250.22;5088807;28;20048;-85
2021/05/04 06:04:57;;;;;;;5.13;2.28;;;;;;;8.79;56.96;98257.03;5090012;28;20434;-83
2021/05/04 06:07:27;;;;;;;3.35;1.80;;;;;;;8.89;57.59;98255.84;5077975;28;20109;-83
2021/05/04 06:09:53;;;;;;;6.00;2.42;;;;;;;8.90;57.21;98255.63;5090996;28;20043;-83
2021/05/04 06:12:20;;;;;;;4.10;2.55;;;;;;;8.99;57.22;98257.16;5089620;28;20055;-83
2021/05/04 06:14:46;;;;;;;3.00;1.70;;;;;;;9.03;56.35;98242.19;5071212;28;20229;-83
2021/05/04 06:17:12;;;;;;;2.65;1.88;;;;;;;9.25;56.19;98252.97;5080741;28;20055;-83
2021/05/04 06:19:38;;;;;;;7.90;3.47;;;;;;;9.25;56.82;98247.53;5071111;28;20052;-83
2021/05/04 06:22:05;;;;;;;8.50;2.10;;;;;;;9.43;55.71;98254.34;5089919;28;20549;-83
2021/05/04 06:24:32;;;;;;;3.10;1.88;;;;;;;9.39;55.97;98232.19;5080341;28;20068;-82
2021/05/04 06:26:58;;;;;;;2.80;2.08;;;;;;;9.62;55.23;98250.03;5089873;28;20055;-82
2021/05/04 06:29:25;;;;;;;5.63;2.10;;;;;;;9.56;55.32;98224.56;5071471;28;20051;-83
2021/05/04 06:31:53;;;;;;;7.07;2.08;;;;;;;9.76;53.48;98229.25;5081302;28;20444;-83
2021/05/04 06:34:19;;;;;;;5.90;1.92;;;;;;;9.90;54.48;98223.63;5088502;28;20068;-83
2021/05/04 06:36:46;;;;;;;3.28;1.77;;;;;;;10.01;52.29;98230.38;5073151;28;20404;-82
2021/05/04 06:39:12;;;;;;;2.55;1.67;;;;;;;10.04;51.67;98215.53;5081163;28;20508;-83
2021/05/04 06:41:39;;;;;;;1.88;1.70;;;;;;;10.17;50.51;98214.75;5079437;28;20051;-84
2021/05/04 06:44:06;;;;;;;7.25;1.92;;;;;;;10.27;49.87;98209.75;5086052;28;20109;-83
2021/05/04 06:46:35;;;;;;;3.00;1.73;;;;;;;10.49;49.28;98226.72;5088124;28;20105;-83
2021/05/04 06:49:02;;;;;;;4.85;1.55;;;;;;;10.57;49.53;98223.00;5082719;28;20487;-83
2021/05/04 06:51:32;;;;;;;2.88;1.95;;;;;;;10.55;49.79;98217.75;5086352;28;20060;-83
2021/05/04 06:54:04;;;;;;;4.97;2.03;;;;;;;10.67;48.50;98220.66;5078116;28;20043;-83
2021/05/04 06:59:20;;;;;;;6.80;1.70;;;;;;;10.76;48.13;98207.72;5085263;28;20055;-84
2021/05/04 07:01:46;;;;;;;4.00;1.45;;;;;;;10.96;49.16;98216.72;5074853;28;20384;-83
2021/05/04 07:04:15;;;;;;;2.85;1.60;;;;;;;11.03;48.85;98215.84;5072400;28;20089;-83
2021/05/04 07:06:43;;;;;;;4.53;1.58;;;;;;;11.06;48.24;98194.50;5090812;28;20124;-83
2021/05/04 07:09:09;;;;;;;3.80;1.23;;;;;;;11.21;47.28;98202.44;5086332;28;20048;-83
2021/05/04 07:11:36;;;;;;;2.90;1.30;;;;;;;11.26;47.71;98194.47;5083047;28;20066;-82
2021/05/04 07:14:04;;;;;;;5.22;1.65;;;;;;;11.32;46.15;98190.91;5069564;28;20094;-84
2021/05/04 07:16:32;;;;;;;1.25;1.15;;;;;;;11.40;46.38;98180.84;5085320;28;20506;-82
2021/05/04 07:18:59;;;;;;;5.93;1.38;;;;;;;11.53;46.15;98183.50;5087691;28;20209;-82
2021/05/04 07:21:27;;;;;;;1.92;1.30;;;;;;;11.58;45.49;98191.03;5073638;28;20044;-82
2021/05/04 07:23:53;;;;;;;3.90;1.60;;;;;;;11.68;47.10;98172.34;5068650;28;20064;-83
2021/05/04 07:26:19;;;;;;;4.60;1.67;;;;;;;11.81;45.72;98187.78;5077115;28;20056;-82
2021/05/04 07:28:45;;;;;;;1.58;0.93;;;;;;;11.86;45.71;98186.09;5079137;28;20060;-83
2021/05/04 07:31:14;;;;;;;4.20;1.13;;;;;;;11.96;44.62;98184.81;5080386;28;20048;-83
2021/05/04 07:33:43;;;;;;;1.88;1.10;;;;;;;12.06;43.96;98185.19;5088302;28;20126;-84
2021/05/04 07:36:10;;;;;;;3.58;1.13;;;;;;;12.13;45.47;98179.69;5081106;28;20166;-83
2021/05/04 07:38:37;;;;;;;5.80;1.52;;;;;;;12.27;44.81;98178.56;5083057;28;20048;-82
2021/05/04 07:41:03;;;;;;;1.63;1.30;;;;;;;12.31;44.93;98177.03;5082311;28;20052;-83
2021/05/04 07:43:29;;;;;;;2.65;1.30;;;;;;;12.36;44.44;98171.78;5072520;28;20055;-83
2021/05/04 07:45:56;;;;;;;1.60;1.15;;;;;;;12.52;45.08;98177.72;5076475;28;20044;-82
2021/05/04 07:48:25;;;;;;;1.20;1.10;;;;;;;12.52;43.75;98167.66;5091320;28;20056;-82
2021/05/04 07:50:52;;;;;;;3.27;1.30;;;;;;;12.55;43.50;98169.94;5089136;28;20071;-83
2021/05/04 07:53:18;;;;;;;3.15;1.25;;;;;;;12.70;45.08;98157.88;5087643;28;20298;-83
2021/05/04 07:55:45;;;;;;;2.35;1.50;;;;;;;12.74;43.91;98165.38;5091091;28;20089;-83
2021/05/04 07:58:13;;;;;;;3.53;1.48;;;;;;;12.73;46.60;98149.25;5083524;28;20048;-83
2021/05/04 08:00:40;;;;;;;1.65;1.50;;;;;;;12.70;44.76;98161.41;5088840;28;20296;-82
2021/05/04 08:03:06;;;;;;;1.38;1.08;;;;;;;12.88;46.58;98157.06;5070845;28;20495;-82
2021/05/04 08:05:32;;;;;;;1.58;1.25;;;;;;;12.83;43.97;98163.22;5091471;28;20102;-82
2021/05/04 08:08:00;;;;;;;1.52;1.02;;;;;;;12.92;45.02;98172.78;5086524;28;20060;-81
2021/05/04 08:10:31;;;;;;;2.72;1.52;;;;;;;12.91;44.86;98149.28;5081887;28;20044;-84
2021/05/04 08:13:04;;;;;;;8.15;1.60;;;;;;;13.03;44.54;98162.19;5085431;28;20044;-82
2021/05/04 08:15:30;;;;;;;3.40;1.52;;;;;;;13.17;43.37;98154.69;5081568;28;20059;-83
2021/05/04 08:18:04;;;;;;;1.20;1.10;;;;;;;13.28;44.72;98165.69;5076770;28;20043;-83
2021/05/04 08:20:32;;;;;;;3.30;1.30;;;;;;;13.20;42.67;98146.91;5083252;28;20439;-82
2021/05/04 08:23:01;;;;;;;4.35;1.35;;;;;;;13.42;42.91;98160.13;5086536;28;20150;-83
2021/05/04 08:25:28;;;;;;;4.90;1.30;;;;;;;13.57;42.05;98157.81;5078950;28;20051;-83
2021/05/04 08:27:57;;;;;;;3.22;1.20;;;;;;;13.72;40.89;98156.59;5092679;28;20052;-82
2021/05/04 08:30:29;;;;;;;3.42;1.17;;;;;;;13.66;40.41;98136.50;5080208;28;20051;-82
2021/05/04 08:32:55;;;;;;;3.35;1.20;;;;;;;13.88;41.38;98155.13;5083154;28;20052;-83
2021/05/04 08:35:21;;;;;;;0.90;0.90;;;;;;;13.95;41.62;98153.13;5082960;28;20044;-83
2021/05/04 08:37:56;;;;;;;3.40;1.55;;;;;;;13.93;39.90;98145.16;5090480;28;20044;-83
2021/05/04 08:40:27;;;;;;;12.27;1.48;;;;;;;13.89;39.17;98146.69;5081651;28;20163;-83
2021/05/04 08:42:56;;;;;;;2.80;1.08;;;;;;;14.12;39.70;98164.25;5080866;28;20055;-83
2021/05/04 08:45:57;;;;;;;3.47;1.30;;;;;;;13.97;38.92;98138.19;5089740;28;20126;-85
2021/05/04 08:48:32;;;;;;;4.38;1.05;;;;;;;14.01;38.72;98133.06;5091499;28;20054;-84
2021/05/04 08:50:59;;;;;;;4.70;1.33;;;;;;;14.12;37.89;98153.31;5081032;28;20055;-82
2021/05/04 08:53:33;;;;;;;11.63;1.00;;;;;;;14.09;37.60;98140.09;5083011;28;20134;-84
2021/05/04 08:56:02;;;;;;;3.10;1.40;;;;;;;14.22;38.00;98144.56;5082706;28;20487;-83
2021/05/04 08:58:29;;;;;;;3.83;1.27;;;;;;;14.12;38.03;98139.63;5072890;28;20044;-84
2021/05/04 09:00:56;;;;;;;1.90;1.20;;;;;;;14.34;38.04;98143.50;5080739;28;20135;-84
2021/05/04 09:03:33;;;;;;;2.28;1.00;;;;;;;14.23;37.79;98108.78;5081362;28;20052;-82
2021/05/04 09:06:02;;;;;;;3.42;1.02;;;;;;;14.39;37.71;98159.22;5081425;28;20059;-82
2021/05/04 09:08:36;;;;;;;1.90;1.38;;;;;;;14.38;36.94;98146.63;5083752;28;20317;-82
2021/05/04 09:11:25;;;;;;;2.45;1.20;;;;;;;14.44;37.07;98139.38;5084805;28;20955;-83
2021/05/04 09:13:57;;;;;;;6.03;1.50;;;;;;;14.74;37.34;98158.47;5083755;28;20519;-82
2021/05/04 09:16:36;;;;;;;1.92;1.10;;;;;;;14.77;36.63;98155.28;5087441;28;20044;-82
2021/05/04 09:19:13;;;;;;;4.55;1.92;;;;;;;14.63;36.91;98130.06;5078829;28;20102;-83
2021/05/04 09:21:46;;;;;;;1.33;1.10;;;;;;;14.72;36.75;98151.56;5082996;28;20048;-82
2021/05/04 09:24:25;;;;;;;7.30;1.73;;;;;;;14.74;36.61;98150.28;5085375;28;20056;-82
2021/05/04 09:27:04;;;;;;;9.60;1.30;;;;;;;14.68;36.11;98143.84;5084077;28;20064;-83
2021/05/04 09:29:32;;;;;;;3.17;1.33;;;;;;;14.67;35.96;98130.41;5084084;28;20044;-83
2021/05/04 09:32:17;;;;;;;1.35;1.13;;;;;;;14.73;36.13;98126.72;5082117;28;20071;-84
2021/05/04 09:34:50;;;;;;;3.88;1.15;;;;;;;14.83;37.57;98126.97;5080467;28;20086;-83
2021/05/04 09:37:43;;;;;;;6.00;1.20;;;;;;;14.87;35.56;98102.69;5083032;28;20123;-83
2021/05/04 09:40:22;;;;;;;2.13;1.00;;;;;;;14.94;35.81;98129.94;5072021;28;20068;-83
2021/05/04 09:43:09;;;;;;;3.67;1.25;;;;;;;14.96;35.53;98130.53;5084559;28;20048;-82
2021/05/04 09:45:41;;;;;;;2.13;1.00;;;;;;;15.03;35.58;98125.75;5080606;28;20044;-83
2021/05/04 09:48:14;;;;;;;5.45;1.27;;;;;;;15.13;35.37;98122.41;5081161;28;20076;-82
2021/05/04 09:50:51;;;;;;;2.80;0.82;;;;;;;15.33;36.93;98122.03;5070677;28;20468;-82
2021/05/04 09:53:24;;;;;;;4.20;0.95;;;;;;;15.21;34.91;98114.66;5089389;28;20253;-83
2021/05/04 09:55:56;;;;;;;3.80;1.02;;;;;;;15.33;35.06;98138.47;5072336;28;20289;-83
2021/05/04 09:58:34;;;;;;;3.97;1.30;;;;;;;15.31;35.19;98130.50;5075035;28;20466;-83
2021/05/04 10:01:03;;;;;;;2.83;0.82;;;;;;;15.33;35.82;98120.13;5086433;28;20051;-83
2021/05/04 10:03:29;;;;;;;4.68;1.25;;;;;;;15.31;35.46;98108.59;5091768;28;20052;-83
2021/05/04 10:05:59;;;;;;;2.42;1.35;;;;;;;15.39;35.29;98107.38;5090536;28;20056;-83
2021/05/04 10:08:28;;;;;;;1.90;0.95;;;;;;;15.29;32.50;98090.72;5100873;28;20064;-82
2021/05/04 10:10:57;;;;;;;1.52;1.13;;;;;;;15.37;33.50;98120.47;5082156;28;20083;-84
2021/05/04 10:13:25;;;;;;;1.65;1.13;;;;;;;15.36;31.79;98107.84;5078253;28;20036;-83
2021/05/04 10:15:52;;;;;;;5.70;1.20;;;;;;;15.29;32.40;98110.72;5085456;28;20048;-82
2021/05/04 10:18:19;;;;;;;1.42;0.95;;;;;;;15.47;33.24;98123.41;5091133;28;20056;-82
2021/05/04 10:20:46;;;;;;;3.92;1.13;;;;;;;15.35;33.46;98108.91;5087527;28;20072;-82
2021/05/04 10:23:14;;;;;;;3.92;1.00;;;;;;;15.40;33.91;98100.81;5090632;28;20491;-82
2021/05/04 10:25:41;;;;;;;1.50;0.90;;;;;;;15.45;33.67;98108.31;5078605;28;20048;-82
2021/05/04 10:28:12;;;;;;;3.47;0.75;;;;;;;15.24;33.71;98109.78;5084788;28;20063;-84
2021/05/04 10:30:50;;;;;;;;;;;;;;;;;;;;;
2021/05/04 10:33:43;;;;;;;4.35;1.45;;;;;;;15.40;33.53;98112.59;5087899;28;20403;-84
2021/05/04 10:36:37;;;;;;;2.00;1.00;;;;;;;15.40;33.75;98098.06;5085911;28;20565;-83
2021/05/04 10:39:10;;;;;;;5.00;1.00;;;;;;;15.39;33.48;98107.38;5069970;28;20060;-83
2021/05/04 10:41:55;;;;;;;4.22;1.15;;;;;;;15.32;33.41;98093.78;5085384;28;20048;-83
2021/05/04 10:44:30;;;;;;;6.07;1.38;;;;;;;15.46;33.21;98110.81;5090905;28;20120;-83
2021/05/04 10:46:57;;;;;;;2.53;1.10;;;;;;;15.32;33.01;98088.31;5077441;28;20056;-82
2021/05/04 10:49:58;;;;;;;1.25;0.95;;;;;;;15.47;32.98;98087.81;5080480;28;20127;-83
2021/05/04 10:52:58;;;;;;;2.63;0.90;;;;;;;15.44;32.81;98096.50;5079582;28;20056;-83
2021/05/04 10:55:24;;;;;;;;;;;;;;;15.64;34.15;98107.06;5085937;28;20056;-82
2021/05/04 10:58:16;;;;;;;1.20;0.93;;;;;;;15.73;33.22;98099.25;5085549;28;20359;-82
2021/05/04 11:00:51;;;;;;;1.27;1.17;;;;;;;15.73;34.93;98102.00;5089415;28;20056;-82
2021/05/04 11:03:52;;;;;;;6.20;1.40;;;;;;;15.80;34.29;98121.91;5081011;28;20056;-82
2021/05/04 11:06:55;;;;;;;1.77;1.00;;;;;;;15.64;32.99;98112.53;5092001;28;20047;-82
2021/05/04 11:09:39;;;;;;;2.38;0.90;;;;;;;15.39;33.41;98101.91;5080228;28;20044;-81
2021/05/04 11:12:35;;;;;;;2.25;0.90;;;;;;;15.45;33.20;98111.06;5078596;28;20551;-83
2021/05/04 11:15:19;;;;;;;0.88;0.85;;;;;;;15.37;33.18;98112.25;5085243;28;20047;-82
2021/05/04 11:17:46;;;;;;;1.77;0.93;;;;;;;15.20;32.91;98095.75;5087615;28;20133;-83
2021/05/04 11:20:32;;;;;;;2.38;1.00;;;;;;;15.35;33.26;98112.47;5080982;28;20049;-82
2021/05/04 11:23:09;;;;;;;0.95;0.88;;;;;;;15.35;33.94;98100.72;5075295;28;20056;-82
2021/05/04 11:25:41;;;;;;;1.95;1.00;;;;;;;15.45;34.02;98100.91;5071756;28;20060;-83
2021/05/04 11:28:17;;;;;;;2.75;1.15;;;;;;;15.38;33.75;98062.72;5075710;28;20044;-81
2021/05/04 11:30:43;;;;;;;2.13;0.85;;;;;;;15.48;33.94;98092.22;5088585;28;20055;-82
2021/05/04 11:33:27;;;;;;;3.55;1.20;;;;;;;15.56;33.42;98088.25;5073199;28;20412;-82
2021/05/04 11:35:56;;;;;;;1.13;0.88;;;;;;;15.48;34.05;98064.84;5079079;28;20048;-82
2021/05/04 11:38:24;;;;;;;1.15;1.00;;;;;;;15.66;34.34;98093.13;5082782;28;20093;-81
2021/05/04 11:40:53;;;;;;;2.03;1.42;;;;;;;15.70;34.94;98081.44;5095350;28;20063;-81
2021/05/04 11:43:21;;;;;;;3.55;1.25;;;;;;;15.84;35.41;98082.00;5087487;28;20400;-81
2021/05/04 11:45:51;;;;;;;7.55;1.42;;;;;;;15.78;33.61;98061.06;5085224;28;20041;-81
2021/05/04 11:48:18;;;;;;;7.85;1.08;;;;;;;15.85;33.38;98074.59;5078819;28;20044;-81
2021/05/04 11:50:46;;;;;;;4.70;1.00;;;;;;;15.91;33.06;98068.97;5078378;28;20052;-82
2021/05/04 11:53:16;;;;;;;2.72;0.95;;;;;;;15.88;33.36;98072.19;5081559;28;20044;-82
2021/05/04 11:55:44;;;;;;;2.03;1.27;;;;;;;15.57;33.75;98059.81;5083565;28;20084;-81
2021/05/04 11:58:16;;;;;;;3.13;1.17;;;;;;;15.56;34.40;98069.91;5083841;28;20057;-83
2021/05/04 12:00:43;;;;;;;3.08;1.20;;;;;;;15.54;35.04;98080.28;5073662;28;20045;-82